Time;durP1;ratioP1;P1;durP2;ratioP2;P2;SDS_P1;SDS_P2;PMS_P1;PMS_P2;Temp;Humidity;BMP_temperature;BMP_pressure;BME280_temperature;BME280_humidity;BME280_pressure;Samples;Min_cycle;Max_cycle;Signal;HPM_P1;HPM_P2
2022/06/02 00:00:46;;;;;;;17.55;12.32;;;;;;;10.31;80.55;101165.56;6105853;23;20501;-83
2022/06/02 00:03:29;;;;;;;16.02;12.48;;;;;;;10.24;81.49;101178.38;6105004;23;20030;-82
2022/06/02 00:06:11;;;;;;;16.55;12.00;;;;;;;10.13;81.56;101160.19;6104457;23;20019;-83
2022/06/02 00:08:56;;;;;;;16.00;11.90;;;;;;;10.07;81.43;101173.00;6105192;23;20010;-85
2022/06/02 00:11:36;;;;;;;14.80;12.00;;;;;;;9.97;81.83;101160.75;6101830;23;20250;-83
2022/06/02 00:14:17;;;;;;;14.85;11.82;;;;;;;10.02;82.25;101170.78;6099499;23;20046;-83
2022/06/02 00:16:52;;;;;;;17.23;13.10;;;;;;;10.02;82.05;101178.66;6099538;23;20022;-82
2022/06/02 00:19:33;;;;;;;15.90;12.70;;;;;;;10.03;82.15;101180.28;6099056;23;20049;-81
2022/06/02 00:22:07;;;;;;;15.82;12.90;;;;;;;9.94;82.61;101175.88;6099655;23;20026;-79
2022/06/02 00:24:44;;;;;;;16.70;13.02;;;;;;;9.76;83.13;101167.94;6099271;23;20356;-80
2022/06/02 00:27:23;;;;;;;17.67;13.07;;;;;;;9.65;83.52;101165.44;6101814;23;20085;-82
2022/06/02 00:30:08;;;;;;;14.63;12.40;;;;;;;9.59;83.35;101166.81;6104174;23;20023;-80
2022/06/02 00:32:46;;;;;;;18.80;12.70;;;;;;;9.57;84.03;101166.13;6131314;23;20026;-80
2022/06/02 00:35:40;;;;;;;16.85;12.38;;;;;;;9.63;83.77;101175.22;6128560;23;20080;-81
2022/06/02 00:38:18;;;;;;;15.57;13.02;;;;;;;9.54;84.05;101171.63;6127785;23;20105;-80
2022/06/02 00:40:46;;;;;;;17.95;13.48;;;;;;;9.64;84.22;101188.16;6129109;23;20058;-81
2022/06/02 00:43:30;;;;;;;16.38;13.23;;;;;;;9.60;84.30;101181.53;6128509;23;20030;-82
2022/06/02 00:46:08;;;;;;;15.60;13.00;;;;;;;9.59;84.35;101192.94;6128379;23;20022;-81
2022/06/02 00:48:52;;;;;;;15.80;13.00;;;;;;;9.59;84.60;101190.34;6128168;23;20054;-83
2022/06/02 00:51:35;;;;;;;15.02;13.40;;;;;;;9.50;84.31;101183.31;6127691;23;20061;-82
2022/06/02 01:00:00;;;;;;;18.80;13.18;;;;;;;9.48;84.82;101207.91;6132815;23;20113;-82
2022/06/02 01:02:28;;;;;;;16.15;12.77;;;;;;;9.39;85.27;101206.97;6135430;23;20041;-82
2022/06/02 01:05:00;;;;;;;17.05;13.30;;;;;;;9.39;85.46;101204.34;6136020;23;20033;-82
2022/06/02 01:07:42;;;;;;;20.30;13.63;;;;;;;9.37;85.57;101206.25;6129356;23;20520;-82
2022/06/02 01:10:24;;;;;;;17.05;13.43;;;;;;;9.31;86.20;101204.19;6129323;23;20026;-83
2022/06/02 01:13:13;;;;;;;15.77;12.90;;;;;;;9.31;86.33;101204.19;6129350;23;20465;-82
2022/06/02 01:15:51;;;;;;;17.55;13.32;;;;;;;9.30;86.16;101212.97;6129758;23;20074;-81
2022/06/02 01:18:26;;;;;;;15.70;13.73;;;;;;;9.30;86.59;101215.59;6130453;23;20294;-83
2022/06/02 01:21:12;;;;;;;15.77;13.23;;;;;;;9.21;87.05;101213.78;6130102;23;20613;-82
2022/06/02 01:23:56;;;;;;;18.40;14.10;;;;;;;9.20;87.11;101218.16;6131540;23;20074;-83
2022/06/02 01:26:47;;;;;;;42.25;24.80;;;;;;;9.23;87.13;101222.31;6136408;23;20058;-83
2022/06/02 01:29:35;;;;;;;52.60;29.65;;;;;;;9.16;87.14;101223.78;6132362;23;20093;-83
2022/06/02 01:32:07;;;;;;;32.88;20.02;;;;;;;9.08;87.57;101223.63;6129714;23;20493;-83
2022/06/02 01:34:47;;;;;;;26.63;17.23;;;;;;;9.00;87.33;101226.88;6129305;23;20022;-83
2022/06/02 01:37:22;;;;;;;20.38;15.60;;;;;;;8.97;87.52;101233.22;6130668;23;20033;-83
2022/06/02 01:40:06;;;;;;;19.17;14.60;;;;;;;8.93;87.58;101224.00;6128805;23;20109;-81
2022/06/02 01:42:45;;;;;;;17.77;14.60;;;;;;;8.92;87.41;101234.56;6138983;23;20026;-82
2022/06/02 01:45:20;;;;;;;17.02;13.48;;;;;;;8.80;88.21;101232.97;6138739;23;20033;-79
2022/06/02 01:47:58;;;;;;;16.17;13.38;;;;;;;8.80;88.27;101236.41;6134858;23;20090;-83
2022/06/02 01:50:37;;;;;;;16.23;13.32;;;;;;;8.76;88.48;101229.81;6127701;23;20061;-81
2022/06/02 01:53:14;;;;;;;20.25;14.02;;;;;;;8.69;88.44;101228.66;6127481;23;20022;-82
2022/06/02 01:56:09;;;;;;;18.90;14.02;;;;;;;8.69;88.81;101233.06;6127315;23;20029;-83
2022/06/02 01:58:50;;;;;;;19.23;13.50;;;;;;;8.74;88.47;101226.50;6127658;23;20202;-82
2022/06/02 02:01:23;;;;;;;15.80;13.10;;;;;;;8.73;88.97;101230.06;6128654;23;20097;-83
2022/06/02 02:04:06;;;;;;;17.63;12.93;;;;;;;8.74;88.83;101230.88;6129067;23;20445;-83
2022/06/02 02:06:39;;;;;;;16.42;13.13;;;;;;;8.75;88.87;101230.75;6131851;23;20065;-81
2022/06/02 02:09:12;;;;;;;18.92;13.63;;;;;;;8.71;88.99;101224.16;6131868;23;20037;-80
2022/06/02 02:11:45;;;;;;;;;;;;;;;8.65;89.51;101233.31;6142586;23;20041;-86
2022/06/02 02:14:25;;;;;;;17.25;13.00;;;;;;;8.67;89.41;101234.97;6148422;23;19921;-82
2022/06/02 02:16:59;;;;;;;18.13;13.98;;;;;;;8.57;89.63;101224.47;6148725;23;20014;-85
2022/06/02 02:19:40;;;;;;;18.65;13.75;;;;;;;8.60;89.92;101229.44;6141351;23;20026;-82
2022/06/02 02:22:16;;;;;;;19.42;13.73;;;;;;;8.56;89.98;101238.47;6132476;23;20026;-82
2022/06/02 02:25:07;;;;;;;20.70;14.18;;;;;;;8.54;90.29;101230.78;6132227;23;20080;-81
2022/06/02 02:30:23;;;;;;;17.23;13.38;;;;;;;8.50;89.99;101245.06;6130808;23;20084;-86
2022/06/02 02:32:57;;;;;;;19.85;14.07;;;;;;;8.54;90.07;101240.38;6131427;23;20498;-83
2022/06/02 02:35:35;;;;;;;18.10;13.93;;;;;;;8.58;89.95;101234.78;6130762;23;20026;-84
2022/06/02 02:38:09;;;;;;;22.15;15.02;;;;;;;8.61;90.14;101241.53;6130115;23;20066;-83
2022/06/02 02:40:45;;;;;;;27.63;15.35;;;;;;;8.64;89.63;101236.06;6130672;23;20026;-83
2022/06/02 02:43:17;;;;;;;23.77;14.77;;;;;;;8.62;89.79;101243.19;6131709;23;20438;-84
2022/06/02 02:45:47;;;;;;;;;;;;;;;8.67;89.67;101241.00;6132407;23;20026;-82
2022/06/02 02:48:24;;;;;;;19.70;15.35;;;;;;;8.72;89.43;101238.84;6132156;23;19927;-84
2022/06/02 02:51:03;;;;;;;24.42;15.60;;;;;;;8.67;89.52;101232.34;6132277;23;20350;-84
2022/06/02 02:53:34;;;;;;;23.23;16.02;;;;;;;8.62;89.72;101230.13;6131926;23;20056;-80
2022/06/02 02:56:12;;;;;;;22.08;17.00;;;;;;;8.60;89.59;101230.25;6130924;23;20391;-81
2022/06/02 02:58:44;;;;;;;21.75;16.65;;;;;;;8.58;89.86;101241.78;6131575;23;20022;-80
2022/06/02 03:01:15;;;;;;;24.23;16.55;;;;;;;8.49;90.20;101242.56;6130400;23;20044;-81
2022/06/02 03:03:47;;;;;;;22.25;16.80;;;;;;;8.44;90.10;101247.34;6129476;23;20415;-82
2022/06/02 03:06:21;;;;;;;25.48;18.52;;;;;;;8.35;90.52;101255.91;6130029;23;20065;-82
2022/06/02 03:08:55;;;;;;;23.70;18.08;;;;;;;8.37;90.13;101256.63;6129854;23;20025;-81
2022/06/02 03:11:39;;;;;;;22.77;17.45;;;;;;;8.31;90.33;101258.75;6129904;23;20105;-81
2022/06/02 03:14:18;;;;;;;23.63;17.23;;;;;;;8.27;91.25;101259.94;6129766;23;20029;-81
2022/06/02 03:16:51;;;;;;;23.73;17.85;;;;;;;8.28;90.76;101256.38;6130563;23;20060;-82
2022/06/02 03:19:24;;;;;;;27.52;18.67;;;;;;;8.20;90.84;101261.41;6129257;23;20052;-80
2022/06/02 03:21:58;;;;;;;27.13;19.10;;;;;;;8.19;91.19;101267.56;6132198;23;20053;-81
2022/06/02 03:24:46;;;;;;;26.77;19.20;;;;;;;8.18;91.36;101278.13;6132679;23;20033;-80
2022/06/02 03:27:24;;;;;;;24.95;17.98;;;;;;;8.19;91.11;101283.19;6131643;23;20100;-82
2022/06/02 03:30:02;;;;;;;29.13;19.08;;;;;;;8.13;91.57;101278.47;6132043;23;20719;-81
2022/06/02 03:32:51;;;;;;;32.75;18.75;;;;;;;8.08;91.27;101278.03;6131796;23;20088;-81
2022/06/02 03:35:27;;;;;;;26.38;18.58;;;;;;;8.09;91.74;101278.84;6122581;22;20057;-79
2022/06/02 03:38:03;;;;;;;25.65;19.45;;;;;;;8.15;91.79;101276.59;6126585;23;20025;-81
2022/06/02 03:40:40;;;;;;;28.73;19.35;;;;;;;8.17;91.98;101282.50;6130150;23;20387;-81
2022/06/02 03:43:12;;;;;;;25.10;18.95;;;;;;;8.22;92.05;101282.94;6130527;23;20034;-83
2022/06/02 03:45:53;;;;;;;31.88;19.45;;;;;;;8.23;91.99;101282.00;6130155;23;20078;-81
2022/06/02 03:48:31;;;;;;;29.50;19.75;;;;;;;8.33;91.71;101282.13;6130596;23;20077;-81
2022/06/02 03:51:07;;;;;;;27.92;20.45;;;;;;;8.35;91.47;101289.81;6129926;23;20097;-83
2022/06/02 03:54:01;;;;;;;29.52;19.45;;;;;;;8.25;91.56;101281.88;6130490;23;20089;-81
2022/06/02 03:56:52;;;;;;;29.08;19.50;;;;;;;8.38;91.45;101289.56;6127846;23;20060;-83
2022/06/02 03:59:31;;;;;;;25.73;19.02;;;;;;;8.38;90.98;101308.66;6132383;23;20437;-81
2022/06/02 04:02:02;;;;;;;29.73;19.50;;;;;;;8.32;90.78;101307.38;6128746;23;20026;-82
2022/06/02 04:04:39;;;;;;;27.45;20.05;;;;;;;8.61;91.01;101306.75;6128299;23;20021;-80
2022/06/02 04:07:17;;;;;;;24.80;18.40;;;;;;;9.34;88.97;101304.94;6128427;23;20028;-80
2022/06/02 04:09:52;;;;;;;23.70;17.75;;;;;;;9.97;85.00;101309.78;6127969;23;20019;-81
2022/06/02 04:15:29;;;;;;;22.20;16.50;;;;;;;10.57;79.76;101309.69;6128150;23;20103;-83
2022/06/02 04:18:02;;;;;;;22.48;16.13;;;;;;;10.78;78.99;101323.44;6128231;23;20022;-83
2022/06/02 04:20:43;;;;;;;19.48;14.95;;;;;;;11.02;77.36;101316.91;6129141;23;20053;-83
2022/06/02 04:23:37;;;;;;;18.35;14.57;;;;;;;11.08;77.77;101316.34;6129490;23;20026;-82
2022/06/02 04:26:19;;;;;;;22.90;15.75;;;;;;;11.39;76.48;101322.13;6129879;23;20022;-82
2022/06/02 04:28:55;;;;;;;19.05;14.38;;;;;;;11.72;74.35;101329.44;6130229;23;20046;-83
2022/06/02 04:31:37;;;;;;;19.15;15.25;;;;;;;11.68;74.65;101338.56;6130541;23;20104;-83
2022/06/02 04:34:14;;;;;;;19.27;15.40;;;;;;;11.27;76.74;101329.38;6128848;23;20125;-81
2022/06/02 04:36:50;;;;;;;19.90;16.20;;;;;;;11.35;76.28;101334.69;6130507;23;20060;-81
2022/06/02 04:39:26;;;;;;;19.45;14.65;;;;;;;10.97;77.58;101344.34;6133917;23;20070;-83
2022/06/02 04:42:03;;;;;;;21.27;16.48;;;;;;;10.81;79.09;101353.75;6134667;23;20052;-82
2022/06/02 04:44:36;;;;;;;20.77;16.55;;;;;;;11.14;78.30;101345.41;6132986;23;20343;-85
2022/06/02 04:47:15;;;;;;;22.83;15.48;;;;;;;11.93;75.79;101353.63;6131046;23;20058;-83
2022/06/02 04:49:49;;;;;;;20.63;15.55;;;;;;;12.47;73.36;101351.03;6132760;23;20046;-84
2022/06/02 04:52:22;;;;;;;17.85;15.15;;;;;;;12.67;72.49;101355.16;6133938;23;20053;-83
2022/06/02 04:54:57;;;;;;;21.70;15.93;;;;;;;12.63;72.78;101351.19;6133484;23;20050;-85
2022/06/02 04:57:31;;;;;;;22.20;16.20;;;;;;;12.57;73.10;101357.03;6133376;23;20022;-85
2022/06/02 05:00:04;;;;;;;19.02;15.00;;;;;;;12.58;72.74;101340.31;6131807;23;20323;-83
2022/06/02 05:02:43;;;;;;;21.60;16.42;;;;;;;12.88;71.65;101355.63;6133448;23;20101;-83
2022/06/02 05:05:16;;;;;;;20.27;14.60;;;;;;;12.92;70.94;101354.34;6135470;23;20060;-83
2022/06/02 05:08:13;;;;;;;19.00;15.13;;;;;;;12.55;72.21;101351.94;6129356;23;20028;-83
2022/06/02 05:10:49;;;;;;;18.02;14.75;;;;;;;12.75;71.88;101351.78;6128869;23;20014;-83
2022/06/02 05:13:27;;;;;;;17.10;14.07;;;;;;;12.67;71.87;101347.28;6128370;23;20053;-84
2022/06/02 05:16:12;;;;;;;18.55;14.85;;;;;;;12.60;72.63;101335.75;6127862;23;20026;-85
2022/06/02 05:19:18;;;;;;;19.70;14.95;;;;;;;13.38;70.38;101341.03;6126576;23;20497;-82
2022/06/02 05:22:23;;;;;;;19.83;14.30;;;;;;;13.57;69.04;101341.63;6093971;23;20455;-83
2022/06/02 05:25:12;;;;;;;17.35;14.93;;;;;;;13.85;67.63;101346.63;6111521;23;20110;-83
2022/06/02 05:28:08;;;;;;;18.42;13.68;;;;;;;15.15;62.86;101346.69;6127480;23;20280;-83
2022/06/02 05:33:20;;;;;;;18.05;15.07;;;;;;;16.64;57.75;101331.56;6101364;23;20359;-82
2022/06/02 05:36:18;;;;;;;16.10;12.98;;;;;;;16.92;58.08;101341.41;6103601;23;20026;-83
2022/06/02 05:38:57;;;;;;;16.92;12.85;;;;;;;17.88;55.63;101355.53;6090062;23;20017;-83
2022/06/02 05:41:37;;;;;;;15.65;14.02;;;;;;;18.32;53.83;101351.94;6102516;23;20359;-82
2022/06/02 05:44:11;;;;;;;17.20;14.50;;;;;;;18.51;53.10;101351.28;6102765;23;20057;-83
2022/06/02 05:47:11;;;;;;;17.08;14.88;;;;;;;18.70;53.11;101353.31;6103172;23;20038;-82
2022/06/02 05:49:49;;;;;;;18.52;15.52;;;;;;;18.37;53.42;101360.13;6104246;23;20022;-84
2022/06/02 05:52:29;;;;;;;15.88;14.27;;;;;;;19.07;52.50;101369.91;6104624;23;20037;-84
2022/06/02 05:55:38;;;;;;;19.65;14.95;;;;;;;19.29;51.61;101357.41;6104017;23;20532;-84
2022/06/02 05:58:26;;;;;;;18.77;15.48;;;;;;;19.18;51.82;101362.22;6052595;23;20026;-84
2022/06/02 06:01:02;;;;;;;18.80;16.80;;;;;;;19.11;51.55;101360.53;6103958;23;20102;-84
2022/06/02 06:04:19;;;;;;;18.25;16.10;;;;;;;19.87;49.45;101372.78;6101686;23;20061;-83
2022/06/02 06:06:53;;;;;;;18.88;16.98;;;;;;;20.14;48.39;101365.72;6112645;23;20045;-83
2022/06/02 06:09:34;;;;;;;18.27;16.38;;;;;;;19.90;49.53;101371.56;6102117;23;20026;-84
2022/06/02 06:44:14;;;;;;;19.58;17.48;;;;;;;20.62;47.89;101386.88;5995689;23;20073;-83
2022/06/02 06:46:50;;;;;;;20.10;17.25;;;;;;;21.13;46.86;101391.56;6038645;23;20408;-84
2022/06/02 06:49:44;;;;;;;21.98;18.13;;;;;;;21.70;45.31;101387.38;6040077;23;20023;-85
2022/06/02 07:14:12;;;;;;;22.58;20.00;;;;;;;21.69;44.98;101404.38;5816229;24;20071;-85
2022/06/02 07:17:20;;;;;;;22.35;20.05;;;;;;;22.02;44.78;101418.41;5848874;24;20031;-85
2022/06/02 07:36:54;;;;;;;24.73;19.88;;;;;;;21.78;44.11;101381.78;5878689;24;20480;-84
2022/06/02 07:39:55;;;;;;;23.90;19.67;;;;;;;20.88;46.64;101402.84;5934456;23;20038;-82
2022/06/02 07:42:54;;;;;;;25.63;19.95;;;;;;;19.84;47.49;101383.00;6042011;23;20035;-83
2022/06/02 07:45:40;;;;;;;21.42;19.13;;;;;;;22.11;43.99;101413.66;6040120;23;20034;-84
2022/06/02 07:48:30;;;;;;;22.83;19.20;;;;;;;22.72;43.45;101399.69;6040939;23;20027;-83
2022/06/02 07:51:06;;;;;;;27.00;19.23;;;;;;;23.20;41.94;101407.09;6040226;23;20075;-84
2022/06/02 07:53:51;;;;;;;24.25;20.38;;;;;;;21.67;44.73;101411.75;6040400;23;20523;-85
2022/06/02 07:56:27;;;;;;;22.63;18.63;;;;;;;22.90;43.04;101412.31;6039535;23;20023;-84
2022/06/02 07:59:04;;;;;;;23.15;18.92;;;;;;;22.07;44.21;101412.44;6039567;23;20019;-83
2022/06/02 08:01:59;;;;;;;21.42;18.98;;;;;;;20.45;47.70;101409.56;6040281;23;20027;-83
2022/06/02 08:04:36;;;;;;;21.25;18.85;;;;;;;20.59;46.80;101411.22;6040685;23;20027;-83
2022/06/02 08:07:08;;;;;;;22.92;18.88;;;;;;;20.48;47.71;101396.69;6041465;23;20058;-83
2022/06/02 08:09:46;;;;;;;22.98;19.80;;;;;;;19.51;49.54;101396.13;6042979;23;20047;-82
2022/06/02 08:12:21;;;;;;;23.90;19.10;;;;;;;18.92;50.52;101403.63;6042633;23;20150;-82
2022/06/02 08:15:02;;;;;;;23.67;18.25;;;;;;;17.96;52.04;101413.66;6042896;23;20051;-81
2022/06/02 08:17:37;;;;;;;24.52;17.63;;;;;;;18.38;51.96;101401.53;6044031;23;20071;-82
2022/06/02 08:20:14;;;;;;;22.02;18.35;;;;;;;19.62;50.05;101408.84;6041145;23;20113;-82
2022/06/02 08:22:51;;;;;;;21.50;17.73;;;;;;;20.93;45.48;101398.75;6042090;23;20416;-82
2022/06/02 08:25:22;;;;;;;23.13;16.42;;;;;;;21.72;43.52;101404.78;6042857;23;20023;-81
2022/06/02 08:28:13;;;;;;;21.42;16.48;;;;;;;21.26;42.51;101398.75;6043363;23;20075;-82
2022/06/02 08:30:46;;;;;;;18.65;16.65;;;;;;;22.20;42.84;101411.56;6045267;23;20479;-81
2022/06/02 08:33:43;;;;;;;18.15;15.32;;;;;;;21.87;41.38;101415.16;6045103;23;20027;-82
2022/06/02 08:36:14;;;;;;;17.30;14.52;;;;;;;20.57;43.80;101394.66;6047562;23;20046;-83
2022/06/02 08:39:13;;;;;;;15.98;14.27;;;;;;;20.42;44.06;101407.31;6043933;23;20058;-82
2022/06/02 08:42:21;;;;;;;15.43;13.93;;;;;;;22.42;41.18;101410.16;6038737;23;20058;-82
2022/06/02 08:45:11;;;;;;;15.43;13.65;;;;;;;20.71;41.83;101411.44;6027662;23;20109;-81
2022/06/02 08:48:13;;;;;;;16.73;13.07;;;;;;;21.08;43.02;101412.66;6040844;23;20099;-82
2022/06/02 08:51:12;;;;;;;12.80;11.52;;;;;;;20.88;40.69;101412.66;6043672;23;20055;-83
2022/06/02 08:54:22;;;;;;;14.65;13.05;;;;;;;19.07;43.28;101418.47;6044120;23;20051;-83
2022/06/02 08:57:11;;;;;;;15.98;14.38;;;;;;;19.52;43.89;101419.81;6047470;23;20055;-83
2022/06/02 09:00:05;;;;;;;13.90;12.57;;;;;;;20.91;42.70;101422.06;6041969;23;20020;-84
2022/06/02 09:03:18;;;;;;;15.52;12.27;;;;;;;22.28;38.98;101435.28;6049773;23;20027;-82
2022/06/02 09:06:14;;;;;;;13.63;11.32;;;;;;;20.69;39.73;101430.25;6045895;23;20054;-82
2022/06/02 09:09:16;;;;;;;14.43;10.23;;;;;;;21.76;38.04;101437.94;6044446;23;20051;-81
2022/06/02 09:12:15;;;;;;;11.02;9.38;;;;;;;23.16;37.17;101431.56;6067820;23;20027;-84
2022/06/02 09:15:17;;;;;;;14.30;11.20;;;;;;;22.32;37.84;101434.63;6055850;23;20054;-84
2022/06/02 09:17:53;;;;;;;14.55;13.00;;;;;;;22.02;40.52;101441.56;6020043;23;20054;-83
2022/06/02 09:20:37;;;;;;;15.13;13.02;;;;;;;22.52;39.71;101431.84;6043836;23;20024;-83
2022/06/02 09:23:21;;;;;;;13.57;12.18;;;;;;;23.03;37.60;101430.88;6041055;23;20027;-83
2022/06/02 09:26:15;;;;;;;15.27;12.00;;;;;;;23.53;37.81;101430.81;6041944;23;20062;-85
2022/06/02 09:29:08;;;;;;;13.40;11.20;;;;;;;22.60;38.02;101431.59;6044193;23;20042;-83
2022/06/02 09:31:51;;;;;;;13.52;11.23;;;;;;;23.65;36.57;101431.69;6043203;23;20035;-84
2022/06/02 09:34:38;;;;;;;10.43;8.07;;;;;;;20.66;36.96;101441.31;6045262;23;20107;-80
2022/06/02 09:37:29;;;;;;;11.23;9.25;;;;;;;22.29;36.72;101435.06;6041424;23;20027;-83
2022/06/02 09:40:29;;;;;;;10.43;9.20;;;;;;;22.75;35.57;101418.75;6041433;23;20091;-83
2022/06/02 09:43:32;;;;;;;12.55;10.70;;;;;;;21.72;39.16;101430.59;6043020;23;20242;-84
2022/06/02 09:46:21;;;;;;;10.48;9.35;;;;;;;23.01;35.36;101427.63;6038916;23;20114;-83
2022/06/02 09:49:00;;;;;;;11.13;8.95;;;;;;;23.11;36.23;101430.59;6044485;23;20460;-84
2022/06/02 09:51:53;;;;;;;18.05;10.73;;;;;;;22.29;36.59;101429.72;6041460;23;20078;-83
2022/06/02 09:54:47;;;;;;;14.07;9.20;;;;;;;23.07;35.39;101418.72;6038536;23;20440;-83
2022/06/02 09:57:56;;;;;;;12.32;10.85;;;;;;;20.98;38.10;101412.25;6043498;23;20055;-83
2022/06/02 10:00:43;;;;;;;12.88;11.60;;;;;;;20.92;37.85;101421.06;6041873;23;20074;-83
2022/06/02 10:03:32;;;;;;;14.48;11.45;;;;;;;20.60;41.61;101415.53;6045964;23;20027;-82
2022/06/02 10:06:12;;;;;;;19.05;11.23;;;;;;;20.05;40.62;101409.44;6042976;23;20051;-83
2022/06/02 10:08:50;;;;;;;18.05;12.40;;;;;;;20.25;43.17;101412.16;6042305;23;20137;-84
2022/06/02 10:11:25;;;;;;;16.92;12.05;;;;;;;21.44;40.61;101412.22;6044627;23;20050;-84
2022/06/02 10:14:41;;;;;;;14.13;11.88;;;;;;;21.48;39.00;101411.59;6046368;23;20024;-84
2022/06/02 10:17:43;;;;;;;19.23;12.02;;;;;;;20.97;38.63;101415.94;5957592;24;20025;-83
2022/06/02 10:20:40;;;;;;;12.07;10.65;;;;;;;20.09;39.11;101412.50;6045535;23;20023;-82
2022/06/02 10:23:25;;;;;;;14.35;11.25;;;;;;;20.15;41.00;101406.41;6047468;23;20058;-82
2022/06/02 10:26:07;;;;;;;12.40;11.10;;;;;;;20.06;40.47;101407.59;6045218;23;20127;-83
2022/06/02 10:29:07;;;;;;;12.50;9.93;;;;;;;20.28;39.66;101401.13;6042636;23;20046;-83
2022/06/02 10:32:15;;;;;;;11.18;10.07;;;;;;;20.21;39.92;101394.97;6043971;23;20391;-82
2022/06/02 10:35:05;;;;;;;17.10;10.35;;;;;;;20.35;39.66;101386.00;6043821;23;20027;-83
2022/06/02 10:37:48;;;;;;;12.68;10.38;;;;;;;20.16;39.72;101387.59;6047321;23;20054;-83
2022/06/02 10:40:39;;;;;;;14.43;9.80;;;;;;;20.00;39.25;101387.13;6046781;23;20019;-80
2022/06/02 10:43:42;;;;;;;9.75;8.73;;;;;;;20.95;36.86;101388.72;6045319;23;20027;-84
2022/06/02 10:46:51;;;;;;;10.93;9.75;;;;;;;20.67;38.19;101383.63;6044238;23;20123;-83
2022/06/02 10:49:26;;;;;;;11.30;8.95;;;;;;;20.86;38.20;101388.09;6042374;23;20170;-81
2022/06/02 10:52:30;;;;;;;11.15;8.77;;;;;;;20.66;38.52;101390.78;6040382;23;20079;-84
2022/06/02 10:55:51;;;;;;;10.98;8.70;;;;;;;20.29;39.77;101383.34;6042547;23;20031;-84
2022/06/02 10:59:00;;;;;;;13.98;9.48;;;;;;;19.71;40.36;101382.97;6039907;23;20031;-80
2022/06/02 11:02:11;;;;;;;12.07;9.70;;;;;;;20.05;39.44;101374.91;6043746;23;20050;-84
2022/06/02 11:05:25;;;;;;;10.77;9.10;;;;;;;19.20;41.63;101388.56;6042760;23;20061;-83
2022/06/02 11:08:33;;;;;;;10.20;8.63;;;;;;;19.87;40.70;101377.28;6042926;23;20516;-83
2022/06/02 11:11:25;;;;;;;10.35;8.75;;;;;;;19.92;39.55;101380.16;6043390;23;20035;-84
2022/06/02 11:14:21;;;;;;;8.93;7.95;;;;;;;20.18;38.73;101384.75;6042091;23;20079;-83
2022/06/02 11:17:26;;;;;;;9.43;8.40;;;;;;;19.88;39.35;101378.91;6043064;23;20031;-83
2022/06/02 11:20:26;;;;;;;10.18;8.13;;;;;;;20.48;39.48;101366.63;6058532;23;20019;-83
2022/06/02 11:23:35;;;;;;;10.70;8.20;;;;;;;20.77;38.96;101368.06;6043169;23;20051;-83
2022/06/02 11:26:40;;;;;;;10.65;8.10;;;;;;;20.46;38.35;101364.16;6041853;23;20081;-80
2022/06/02 11:29:29;;;;;;;9.73;8.20;;;;;;;20.15;39.62;101363.88;6041565;23;20110;-81
2022/06/02 11:32:13;;;;;;;9.90;8.25;;;;;;;20.11;39.04;101358.16;6057912;23;20094;-81
2022/06/02 11:35:18;;;;;;;9.05;8.00;;;;;;;19.96;40.06;101360.16;6105911;22;20074;-87
2022/06/02 11:38:18;;;;;;;9.75;7.90;;;;;;;19.95;40.25;101353.19;6125348;23;20041;-87
2022/06/02 11:41:05;;;;;;;8.90;7.53;;;;;;;19.43;40.18;101346.63;6128688;23;20451;-88
2022/06/02 11:43:47;;;;;;;8.80;7.90;;;;;;;19.70;40.06;101354.75;6126077;23;20065;-88
2022/06/02 11:46:34;;;;;;;9.35;8.40;;;;;;;19.76;38.93;101348.66;6125895;23;20069;-88
2022/06/02 11:49:33;;;;;;;9.93;7.80;;;;;;;19.70;39.24;101344.13;6125035;23;20026;-87
2022/06/02 11:52:56;;;;;;;8.80;7.90;;;;;;;19.73;39.08;101338.44;6151240;23;20022;-87
2022/06/02 11:55:28;;;;;;;10.90;7.20;;;;;;;19.92;39.29;101332.34;6035776;23;20070;-88
2022/06/02 11:58:30;;;;;;;10.20;8.00;;;;;;;19.96;38.47;101341.56;6035579;23;20058;-88
2022/06/02 12:01:23;;;;;;;10.68;8.18;;;;;;;20.06;39.60;101323.41;6079126;23;20022;-87
2022/06/02 12:04:26;;;;;;;10.55;6.78;;;;;;;19.54;38.83;101319.56;6126594;23;20026;-88
2022/06/02 12:07:21;;;;;;;8.35;7.47;;;;;;;19.55;39.45;101310.59;6127099;23;20032;-88
2022/06/02 12:10:27;;;;;;;9.25;7.10;;;;;;;19.44;39.10;101313.78;6152295;23;20343;-89
2022/06/02 12:13:13;;;;;;;9.85;6.80;;;;;;;19.96;38.87;101304.38;6128122;23;20022;-87
2022/06/02 12:16:21;;;;;;;7.75;6.80;;;;;;;20.54;38.11;101308.13;6129274;23;20057;-87
2022/06/02 12:19:16;;;;;;;8.05;6.97;;;;;;;20.42;38.33;101307.09;6156112;23;20021;-87
2022/06/02 12:22:00;;;;;;;7.72;6.53;;;;;;;20.81;38.04;101311.56;6127058;23;20022;-87
2022/06/02 12:24:57;;;;;;;8.52;7.25;;;;;;;21.09;37.69;101307.84;6128208;23;20093;-88
2022/06/02 12:27:52;;;;;;;9.85;7.15;;;;;;;20.35;38.13;101300.13;6128430;23;20097;-87
2022/06/02 12:30:30;;;;;;;8.77;7.30;;;;;;;20.44;38.41;101301.59;6129407;22;20066;-88
2022/06/02 12:33:17;;;;;;;12.65;8.23;;;;;;;20.57;38.20;101296.28;6130062;23;20080;-91
2022/06/02 12:36:15;;;;;;;9.27;6.78;;;;;;;20.88;37.58;101291.09;6128752;23;20074;-91
2022/06/02 12:39:13;;;;;;;7.03;6.32;;;;;;;20.65;37.51;101290.75;6100641;23;20443;-90
2022/06/02 12:42:00;;;;;;;10.88;7.20;;;;;;;20.74;37.72;101289.53;6128817;23;20060;-90
2022/06/02 12:45:00;;;;;;;8.90;7.72;;;;;;;20.24;38.67;101292.78;6084303;23;20069;-91
2022/06/02 12:48:07;;;;;;;7.60;6.70;;;;;;;20.81;37.53;101292.13;6134074;23;20036;-91
2022/06/02 12:50:53;;;;;;;7.88;6.75;;;;;;;20.68;37.74;101300.97;6132892;23;20029;-91
2022/06/02 12:54:04;;;;;;;9.13;6.93;;;;;;;20.90;38.49;101295.41;6129542;23;20049;-90
2022/06/02 12:57:10;;;;;;;7.03;6.30;;;;;;;21.13;36.61;101290.44;6130359;23;20373;-91
2022/06/02 13:00:17;;;;;;;7.78;6.97;;;;;;;21.16;36.91;101292.69;6129809;23;20041;-89
2022/06/02 13:03:32;;;;;;;8.15;6.82;;;;;;;20.54;37.32;101294.03;6128135;23;20530;-90
2022/06/02 13:06:27;;;;;;;12.68;6.60;;;;;;;21.72;36.62;101276.09;6083427;23;20060;-88
2022/06/02 13:09:42;;;;;;;10.20;6.70;;;;;;;21.97;36.05;101278.78;6153464;23;20036;-91
2022/06/02 13:13:01;;;;;;;7.03;6.32;;;;;;;21.15;36.67;101283.91;6099839;23;20033;-90
2022/06/02 13:16:09;;;;;;;8.48;6.55;;;;;;;20.60;38.32;101279.91;6127031;23;20079;-90
2022/06/02 13:19:03;;;;;;;9.38;7.30;;;;;;;20.30;39.29;101270.72;6126434;23;20049;-91
2022/06/02 13:22:24;;;;;;;6.90;6.20;;;;;;;20.46;38.51;101278.28;6128382;23;20061;-91
2022/06/02 13:25:22;;;;;;;7.85;6.07;;;;;;;20.40;37.15;101281.75;6130360;23;20033;-90
2022/06/02 13:28:20;;;;;;;8.27;5.40;;;;;;;21.01;36.69;101274.31;6128908;23;20389;-89
2022/06/02 13:31:15;;;;;;;6.53;5.35;;;;;;;21.95;35.79;101268.34;6130096;23;20121;-90
2022/06/02 13:34:06;;;;;;;7.38;5.10;;;;;;;21.97;34.79;101266.28;6130536;23;20022;-90
2022/06/02 13:36:51;;;;;;;5.57;4.97;;;;;;;21.82;34.76;101271.91;6129732;23;20056;-90
2022/06/02 13:39:46;;;;;;;7.07;4.60;;;;;;;21.99;35.80;101261.56;6128644;23;20037;-90
2022/06/02 13:42:29;;;;;;;6.65;4.75;;;;;;;21.88;35.02;101253.44;6129063;23;20029;-90
2022/06/02 13:45:31;;;;;;;8.45;4.70;;;;;;;21.99;36.25;101258.09;6125460;23;20052;-87
2022/06/02 13:48:39;;;;;;;5.55;4.63;;;;;;;22.07;36.82;101248.00;6125264;23;20415;-86
2022/06/02 13:51:53;;;;;;;5.70;5.03;;;;;;;21.15;37.35;101251.13;6129198;23;20022;-86
2022/06/02 13:57:55;;;;;;;6.45;4.68;;;;;;;21.32;36.51;101248.84;6128959;23;20060;-93
2022/06/02 14:00:38;;;;;;;5.60;4.70;;;;;;;21.16;36.52;101240.28;6134511;23;20048;-92
2022/06/02 14:03:34;;;;;;;6.30;4.57;;;;;;;21.05;36.41;101253.41;6135453;23;20411;-92
2022/06/02 14:06:08;;;;;;;6.47;4.50;;;;;;;21.09;36.71;101239.50;6144828;22;20010;-89
2022/06/02 14:09:13;;;;;;;5.45;4.95;;;;;;;20.59;37.42;101234.91;6144258;22;20026;-90
2022/06/02 14:11:53;;;;;;;5.53;4.70;;;;;;;21.35;36.25;101235.09;6147549;22;20022;-90
2022/06/02 14:14:52;;;;;;;7.55;5.00;;;;;;;21.07;36.38;101232.75;6146958;22;20022;-89